Time;durP1;ratioP1;P1;durP2;ratioP2;P2;SDS_P1;SDS_P2;PMS_P1;PMS_P2;Temp;Humidity;BMP_temperature;BMP_pressure;BME280_temperature;BME280_humidity;BME280_pressure;Samples;Min_cycle;Max_cycle;Signal;HPM_P1;HPM_P2
2022/02/17 00:00:52;;;;;;;22.85;15.93;;;;;;;3.70;80.96;96293.59;5094017;28;20052;-70
2022/02/17 00:03:17;;;;;;;19.70;14.02;;;;;;;3.74;80.92;96293.53;5094154;28;20024;-70
2022/02/17 00:05:44;;;;;;;15.75;10.75;;;;;;;3.73;79.46;96294.41;5093930;28;20016;-70
2022/02/17 00:08:09;;;;;;;17.60;12.10;;;;;;;3.62;77.37;96288.53;5093813;28;20035;-70
2022/02/17 00:10:35;;;;;;;16.00;11.77;;;;;;;3.53;77.90;96298.09;5093740;28;20024;-70
2022/02/17 00:13:03;;;;;;;20.35;12.40;;;;;;;3.47;77.56;96302.53;5093844;28;20175;-70
2022/02/17 00:15:30;;;;;;;17.15;12.13;;;;;;;3.29;77.64;96294.97;5093834;28;20020;-70
2022/02/17 00:17:57;;;;;;;20.13;12.85;;;;;;;3.19;78.13;96297.72;5093736;28;20039;-70
2022/02/17 00:20:23;;;;;;;20.52;13.63;;;;;;;3.05;78.33;96293.56;5093538;28;20078;-70
2022/02/17 00:22:49;;;;;;;21.85;14.05;;;;;;;2.95;79.44;96279.06;5093595;28;20046;-70
2022/02/17 00:25:15;;;;;;;20.23;13.18;;;;;;;2.94;79.76;96283.34;5093603;28;20466;-70
2022/02/17 00:27:41;;;;;;;20.58;13.73;;;;;;;2.88;79.43;96273.94;5093484;28;20042;-70
2022/02/17 00:30:08;;;;;;;20.25;12.77;;;;;;;2.88;78.77;96286.00;5093502;28;20509;-70
2022/02/17 00:32:35;;;;;;;22.08;12.57;;;;;;;2.88;78.22;96283.41;5093505;28;20039;-70
2022/02/17 00:35:02;;;;;;;18.50;12.73;;;;;;;2.88;77.78;96284.28;5093506;28;20055;-70
2022/02/17 00:37:28;;;;;;;22.23;14.25;;;;;;;2.82;77.98;96274.03;5093420;28;20024;-70
2022/02/17 00:39:53;;;;;;;20.98;13.10;;;;;;;2.85;77.71;96278.28;5093508;28;20024;-70
2022/02/17 00:42:19;;;;;;;19.25;13.18;;;;;;;2.81;77.16;96281.78;5093440;28;20020;-70
2022/02/17 00:44:49;;;;;;;21.00;12.80;;;;;;;2.68;77.72;96281.91;5093287;28;20038;-70
2022/02/17 00:47:16;;;;;;;23.58;13.95;;;;;;;2.62;77.98;96282.84;5093270;28;20031;-70
2022/02/17 00:49:42;;;;;;;33.30;27.20;;;;;;;2.65;77.75;96287.13;5093171;28;20111;-71
2022/02/17 00:52:07;;;;;;;22.05;14.10;;;;;;;2.63;77.53;96282.00;5093116;28;20557;-70
2022/02/17 00:54:33;;;;;;;21.05;14.88;;;;;;;2.47;77.28;96270.94;5093286;28;20019;-70
2022/02/17 00:56:59;;;;;;;24.23;13.77;;;;;;;2.34;78.92;96277.97;5093074;28;20459;-70
2022/02/17 00:59:26;;;;;;;23.50;16.27;;;;;;;2.22;79.17;96276.34;5093170;28;20436;-70
2022/02/17 01:01:52;;;;;;;22.13;14.57;;;;;;;2.27;79.05;96266.84;5092986;28;20028;-70
2022/02/17 01:04:18;;;;;;;19.95;13.60;;;;;;;2.27;78.44;96265.97;5093069;28;20086;-70
2022/02/17 01:06:45;;;;;;;18.67;12.88;;;;;;;2.22;78.04;96258.28;5093046;28;20044;-70
2022/02/17 01:09:12;;;;;;;17.25;11.90;;;;;;;2.26;77.26;96253.94;5095187;28;20089;-70
2022/02/17 01:11:38;;;;;;;22.20;13.75;;;;;;;2.24;77.06;96253.09;5097320;28;20044;-70
2022/02/17 01:14:04;;;;;;;20.85;14.20;;;;;;;2.18;77.79;96253.16;5097177;28;20104;-70
2022/02/17 01:16:30;;;;;;;23.08;15.45;;;;;;;2.12;80.50;96244.63;5097040;28;20020;-70
2022/02/17 01:18:56;;;;;;;23.08;14.43;;;;;;;2.11;80.85;96247.22;5096893;28;20055;-70
2022/02/17 01:21:22;;;;;;;22.17;14.70;;;;;;;2.12;79.84;96244.63;5097052;28;20020;-70
2022/02/17 01:23:48;;;;;;;29.05;21.83;;;;;;;2.09;78.72;96248.94;5096938;28;20097;-70
2022/02/17 01:26:14;;;;;;;21.08;14.98;;;;;;;2.09;78.04;96238.63;5096827;28;20476;-70
2022/02/17 01:28:40;;;;;;;25.95;13.82;;;;;;;2.02;77.87;96243.81;5096846;28;20028;-70
2022/02/17 01:31:05;;;;;;;20.80;13.25;;;;;;;1.81;78.50;96234.56;5096818;28;20021;-70
2022/02/17 01:33:31;;;;;;;22.50;13.50;;;;;;;1.64;79.32;96239.84;5096831;28;20432;-70
2022/02/17 01:35:57;;;;;;;22.35;14.35;;;;;;;1.59;79.30;96223.53;5096792;28;20020;-70
2022/02/17 01:38:22;;;;;;;18.67;13.23;;;;;;;1.62;79.17;96221.78;5096740;28;20030;-70
2022/02/17 01:40:50;;;;;;;19.45;13.32;;;;;;;1.62;79.02;96214.06;5096735;28;20024;-70
2022/02/17 01:43:17;;;;;;;26.10;15.85;;;;;;;1.69;80.97;96214.88;5096582;28;20095;-70
2022/02/17 01:45:45;;;;;;;28.08;15.07;;;;;;;1.73;80.98;96215.69;5078491;28;20016;-70
2022/02/17 01:48:12;;;;;;;22.70;15.77;;;;;;;1.61;80.83;96203.75;5096427;28;20114;-70
2022/02/17 01:50:40;;;;;;;22.38;14.88;;;;;;;1.66;81.27;96194.28;5096369;28;20023;-70
2022/02/17 01:53:10;;;;;;;22.02;13.68;;;;;;;1.67;80.59;96198.56;5096563;28;20103;-70
2022/02/17 01:55:37;;;;;;;22.55;15.25;;;;;;;1.65;80.05;96192.53;5096563;28;20099;-70
2022/02/17 01:58:03;;;;;;;20.15;13.18;;;;;;;1.61;80.09;96188.28;5096544;28;20072;-70
2022/02/17 02:00:28;;;;;;;23.90;15.82;;;;;;;1.61;80.53;96193.44;5096263;28;20016;-70
2022/02/17 02:02:54;;;;;;;24.08;15.82;;;;;;;1.55;81.21;96189.19;5096212;28;20016;-70
2022/02/17 02:05:19;;;;;;;21.33;14.65;;;;;;;1.63;81.60;96183.97;5096249;28;20027;-70
2022/02/17 02:07:45;;;;;;;22.83;14.35;;;;;;;1.64;80.08;96193.41;5096192;28;20032;-70
2022/02/17 02:10:10;;;;;;;22.17;13.52;;;;;;;1.67;79.87;96197.69;5096232;28;20024;-70
2022/02/17 02:12:36;;;;;;;23.25;14.30;;;;;;;1.63;79.35;96189.97;5095951;28;20032;-70
2022/02/17 02:15:02;;;;;;;22.77;14.23;;;;;;;1.57;79.44;96194.34;5096127;28;20032;-70
2022/02/17 02:17:31;;;;;;;26.73;15.90;;;;;;;1.50;79.80;96185.78;5096125;28;20482;-70
2022/02/17 02:19:57;;;;;;;23.17;14.98;;;;;;;1.47;79.88;96191.81;5077819;28;20394;-70
2022/02/17 02:22:28;;;;;;;21.65;14.98;;;;;;;1.44;79.99;96191.00;5095846;28;20493;-70
2022/02/17 02:25:00;;;;;;;26.23;14.50;;;;;;;1.40;79.86;96197.88;5095747;28;20537;-70
2022/02/17 02:27:28;;;;;;;23.55;13.48;;;;;;;1.39;79.05;96184.13;5095729;28;20035;-70
2022/02/17 02:29:55;;;;;;;20.52;13.27;;;;;;;1.21;78.89;96190.28;5095837;28;20489;-70
2022/02/17 02:32:20;;;;;;;21.45;14.55;;;;;;;1.08;79.87;96197.22;5095577;28;20031;-70
2022/02/17 02:34:46;;;;;;;22.48;14.85;;;;;;;1.13;81.62;96204.94;5095672;28;20028;-70
2022/02/17 02:37:12;;;;;;;23.60;15.13;;;;;;;1.16;81.49;96201.47;5077485;28;20020;-70
2022/02/17 02:39:38;;;;;;;29.52;15.68;;;;;;;1.05;81.73;96202.41;5095481;28;20379;-70
2022/02/17 02:42:05;;;;;;;22.33;14.40;;;;;;;1.09;81.55;96203.25;5095612;28;20028;-70
2022/02/17 02:44:31;;;;;;;17.85;12.95;;;;;;;1.09;80.96;96211.81;5095427;28;20074;-70
2022/02/17 02:46:57;;;;;;;25.85;15.43;;;;;;;1.10;80.31;96202.38;5095412;28;20082;-70
2022/02/17 02:49:22;;;;;;;27.73;15.25;;;;;;;1.00;80.11;96206.75;5095304;28;20020;-70
2022/02/17 02:51:49;;;;;;;17.75;12.95;;;;;;;1.02;79.83;96206.72;5095318;28;20052;-70
2022/02/17 02:54:14;;;;;;;22.55;13.40;;;;;;;1.06;78.70;96200.69;5095155;28;20030;-70
2022/02/17 02:56:40;;;;;;;18.98;12.77;;;;;;;1.04;78.47;96204.97;5095258;28;20020;-70
2022/02/17 02:59:06;;;;;;;17.92;12.93;;;;;;;1.05;78.55;96217.84;5095197;28;20020;-70
2022/02/17 03:01:32;;;;;;;23.50;13.57;;;;;;;0.97;78.68;96222.22;5095191;28;20021;-70
2022/02/17 03:03:59;;;;;;;23.23;14.55;;;;;;;0.92;79.80;96223.94;5095091;28;20048;-70
2022/02/17 03:06:29;;;;;;;23.25;14.18;;;;;;;0.91;80.43;96217.94;5095035;28;20027;-70
2022/02/17 03:08:56;;;;;;;16.50;10.20;;;;;;;0.83;80.45;96228.28;5095017;28;20485;-70
2022/02/17 03:11:22;;;;;;;27.10;14.60;;;;;;;0.75;81.00;96228.31;5076791;28;20438;-70
2022/02/17 03:13:47;;;;;;;26.38;15.07;;;;;;;0.77;81.23;96224.84;5094867;28;20054;-70
2022/02/17 03:16:13;;;;;;;26.70;20.17;;;;;;;0.78;80.98;96221.44;5094854;28;20057;-70
2022/02/17 03:18:39;;;;;;;30.13;21.88;;;;;;;0.78;80.62;96222.28;5094646;28;20144;-70
2022/02/17 03:21:04;;;;;;;24.13;15.85;;;;;;;0.81;80.48;96214.53;5094784;28;20016;-70
2022/02/17 03:23:30;;;;;;;24.45;15.52;;;;;;;0.79;80.46;96213.72;5094727;28;20021;-70
2022/02/17 03:25:57;;;;;;;23.35;15.50;;;;;;;0.74;80.67;96205.13;5094671;28;20020;-70
2022/02/17 03:28:22;;;;;;;20.42;14.15;;;;;;;0.73;80.59;96201.69;5094565;28;20036;-70
2022/02/17 03:30:48;;;;;;;28.92;16.35;;;;;;;0.73;80.87;96203.44;5094070;28;20016;-70
2022/02/17 03:33:14;;;;;;;25.20;14.70;;;;;;;0.68;81.26;96198.28;5094491;28;20028;-70
2022/02/17 03:35:40;;;;;;;32.22;19.42;;;;;;;0.65;82.35;96205.16;5094496;28;20024;-70
2022/02/17 03:38:05;;;;;;;25.42;17.17;;;;;;;0.69;82.15;96200.00;5094502;28;20020;-70
2022/02/17 03:40:31;;;;;;;29.17;17.75;;;;;;;0.68;81.67;96195.72;5076300;28;20102;-70
2022/02/17 03:42:56;;;;;;;26.50;15.52;;;;;;;0.75;81.35;96191.38;5094394;28;20367;-71
2022/02/17 03:45:22;;;;;;;28.73;16.88;;;;;;;0.74;81.07;96192.25;5094319;28;20047;-70
2022/02/17 03:47:47;;;;;;;24.15;16.27;;;;;;;0.72;81.26;96196.56;5094281;28;20028;-70
2022/02/17 03:50:14;;;;;;;21.77;15.32;;;;;;;0.69;82.41;96194.84;5094261;28;20020;-70
2022/02/17 03:52:41;;;;;;;32.92;16.83;;;;;;;0.60;82.32;96188.03;5094290;28;20025;-70
2022/02/17 03:55:08;;;;;;;27.83;16.55;;;;;;;0.53;82.22;96185.47;5094030;28;20402;-71
2022/02/17 03:57:34;;;;;;;31.17;16.08;;;;;;;0.55;82.49;96179.47;5094155;28;20420;-71
2022/02/17 04:00:00;;;;;;;27.42;16.55;;;;;;;0.58;82.86;96178.59;5076070;28;20020;-70
2022/02/17 04:02:25;;;;;;;33.13;17.67;;;;;;;0.51;82.67;96180.31;5094002;28;20020;-70
2022/02/17 04:04:51;;;;;;;28.20;17.27;;;;;;;0.59;82.84;96186.31;5094005;28;20500;-71
2022/02/17 04:07:16;;;;;;;24.88;16.70;;;;;;;0.65;82.54;96184.56;5093739;28;20468;-70
2022/02/17 04:09:42;;;;;;;34.53;17.65;;;;;;;0.61;82.14;96191.47;5093999;28;20058;-71
2022/02/17 04:12:08;;;;;;;26.92;18.00;;;;;;;0.63;82.78;96193.16;5093771;28;20013;-70
2022/02/17 04:14:34;;;;;;;35.85;17.63;;;;;;;0.71;83.39;96189.69;5093752;28;20024;-71
2022/02/17 04:17:00;;;;;;;30.00;17.35;;;;;;;0.70;82.66;96188.00;5093682;28;20102;-70
2022/02/17 04:19:26;;;;;;;27.02;16.77;;;;;;;0.74;82.22;96189.69;5093421;28;20043;-71
2022/02/17 04:21:53;;;;;;;26.65;16.60;;;;;;;0.68;82.03;96184.56;5093740;28;20035;-70
2022/02/17 04:24:19;;;;;;;26.73;17.08;;;;;;;0.69;82.01;96187.13;5093550;28;20035;-71
2022/02/17 04:26:44;;;;;;;28.08;16.38;;;;;;;0.67;81.50;96180.28;5093467;28;20028;-70
2022/02/17 04:29:10;;;;;;;30.73;18.52;;;;;;;0.62;82.70;96181.16;5093593;28;20026;-70
2022/02/17 04:31:36;;;;;;;31.70;17.83;;;;;;;0.65;83.32;96179.41;5093509;28;20024;-70
2022/02/17 04:34:02;;;;;;;35.50;17.48;;;;;;;0.68;83.13;96180.28;5093503;28;20089;-71
2022/02/17 04:36:27;;;;;;;33.92;20.05;;;;;;;0.59;83.23;96170.88;5093467;28;20061;-70
2022/02/17 04:38:53;;;;;;;32.33;20.20;;;;;;;0.70;84.09;96175.97;5093358;28;20028;-71
2022/02/17 04:44:03;;;;;;;28.30;16.77;;;;;;;0.87;82.26;96172.44;5093413;28;20081;-71
2022/02/17 04:46:29;;;;;;;22.90;14.98;;;;;;;0.90;81.50;96166.44;5093340;28;20024;-71
2022/02/17 04:48:54;;;;;;;21.10;14.68;;;;;;;0.89;81.14;96168.16;5093143;28;20063;-71
2022/02/17 04:51:20;;;;;;;25.65;15.73;;;;;;;0.87;80.60;96165.56;5093286;28;20024;-70
2022/02/17 04:53:45;;;;;;;28.83;15.52;;;;;;;0.86;80.40;96165.59;5093271;28;20593;-70
2022/02/17 04:56:11;;;;;;;29.80;17.58;;;;;;;0.70;80.43;96162.25;5093192;28;20051;-71
2022/02/17 04:58:36;;;;;;;27.75;18.23;;;;;;;0.74;81.03;96162.22;5093235;28;20024;-70
2022/02/17 05:01:03;;;;;;;25.70;17.25;;;;;;;0.73;80.89;96150.19;5093269;28;20031;-70
2022/02/17 05:03:29;;;;;;;27.05;15.68;;;;;;;0.75;80.85;96150.19;5093215;28;20024;-70
2022/02/17 05:05:55;;;;;;;25.80;14.90;;;;;;;0.75;80.11;96148.47;5093128;28;20412;-70
2022/02/17 05:08:21;;;;;;;29.08;16.05;;;;;;;0.74;80.21;96153.63;5093260;28;20020;-71
2022/02/17 05:10:48;;;;;;;27.73;16.60;;;;;;;0.73;80.56;96145.03;5075024;28;20046;-70
2022/02/17 05:13:13;;;;;;;31.23;17.08;;;;;;;0.71;80.41;96146.78;5092895;28;20359;-71
2022/02/17 05:15:39;;;;;;;24.42;15.82;;;;;;;0.70;80.05;96137.34;5092861;28;20026;-71
2022/02/17 05:18:05;;;;;;;28.00;16.48;;;;;;;0.68;79.62;96136.50;5092954;28;20118;-70
2022/02/17 05:20:32;;;;;;;22.08;16.15;;;;;;;0.65;79.60;96133.94;5092707;28;20497;-71
2022/02/17 05:22:58;;;;;;;24.65;16.42;;;;;;;0.66;79.87;96132.22;5092856;28;20024;-70
2022/02/17 05:25:23;;;;;;;27.45;16.65;;;;;;;0.71;79.94;96130.47;5092865;28;20031;-69
2022/02/17 05:27:49;;;;;;;26.15;16.63;;;;;;;0.75;80.24;96127.88;5092865;28;20025;-71
2022/02/17 05:30:15;;;;;;;26.60;16.35;;;;;;;0.69;80.48;96120.19;5092949;28;20026;-70
2022/02/17 05:32:42;;;;;;;26.80;16.15;;;;;;;0.73;81.34;96129.59;5092936;28;20103;-70
2022/02/17 05:35:09;;;;;;;25.52;16.20;;;;;;;0.74;81.13;96126.16;5092734;28;20020;-71
2022/02/17 05:37:36;;;;;;;25.45;17.80;;;;;;;0.82;81.83;96127.84;5092779;28;20016;-70
2022/02/17 05:40:03;;;;;;;35.88;17.85;;;;;;;0.86;82.36;96129.53;5092687;28;20020;-70
2022/02/17 05:42:29;;;;;;;31.67;18.27;;;;;;;0.97;81.89;96126.88;5092614;28;20052;-71
2022/02/17 05:44:55;;;;;;;29.40;18.85;;;;;;;1.05;81.00;96124.28;5092706;28;20055;-70
2022/02/17 05:47:21;;;;;;;27.83;16.55;;;;;;;1.12;81.13;96115.63;5074624;28;20028;-71
2022/02/17 05:49:46;;;;;;;32.72;20.15;;;;;;;1.21;80.12;96123.28;5092557;28;20020;-71
2022/02/17 05:52:12;;;;;;;26.13;16.60;;;;;;;1.34;80.29;96120.59;5092632;28;20019;-70
2022/02/17 05:54:37;;;;;;;22.13;14.05;;;;;;;1.73;79.05;96117.69;5075501;28;20115;-70
2022/02/17 05:57:03;;;;;;;19.85;13.88;;;;;;;2.20;77.34;96110.28;5096391;28;20477;-71
2022/02/17 05:59:29;;;;;;;20.30;14.57;;;;;;;2.64;75.11;96113.22;5096411;28;20023;-71
2022/02/17 06:01:54;;;;;;;17.40;12.43;;;;;;;3.11;72.93;96106.53;5096421;28;20086;-71
2022/02/17 06:04:20;;;;;;;17.05;12.68;;;;;;;3.78;71.51;96108.03;5096256;28;20027;-71
2022/02/17 06:06:46;;;;;;;18.17;11.82;;;;;;;4.32;70.32;96097.53;5096273;28;20047;-71
2022/02/17 06:09:11;;;;;;;14.40;10.27;;;;;;;5.02;67.06;96091.72;5096270;28;20028;-71
2022/02/17 06:11:36;;;;;;;18.13;12.38;;;;;;;5.73;66.14;96097.81;5096100;28;20027;-71
2022/02/17 06:14:02;;;;;;;16.40;12.05;;;;;;;6.60;64.72;96095.50;5096094;28;20012;-71
2022/02/17 06:16:28;;;;;;;13.75;10.63;;;;;;;7.41;61.59;96095.59;5096032;28;20024;-71
2022/02/17 06:18:53;;;;;;;13.10;9.82;;;;;;;7.99;57.73;96103.28;5095900;28;20036;-71
2022/02/17 06:21:19;;;;;;;17.42;11.73;;;;;;;8.21;56.22;96104.22;5096021;28;20024;-71
2022/02/17 06:23:45;;;;;;;17.52;11.38;;;;;;;8.34;56.42;96096.81;5095997;28;20168;-71
2022/02/17 06:26:10;;;;;;;16.23;12.05;;;;;;;8.72;55.37;96098.94;5095870;28;20036;-70
2022/02/17 06:28:36;;;;;;;15.40;11.05;;;;;;;9.16;53.92;96109.50;5095767;28;20468;-71
2022/02/17 06:31:02;;;;;;;14.93;11.55;;;;;;;9.73;52.91;96114.19;5077812;28;20028;-70
2022/02/17 06:33:28;;;;;;;14.70;10.68;;;;;;;10.40;51.43;96121.81;5095873;28;20023;-69
2022/02/17 06:35:55;;;;;;;17.00;10.93;;;;;;;11.25;50.20;96111.91;5095744;28;20020;-71
2022/02/17 06:38:20;;;;;;;16.25;9.93;;;;;;;12.17;47.95;96111.00;5095652;28;20032;-71
2022/02/17 06:40:46;;;;;;;13.00;9.95;;;;;;;12.86;47.21;96097.81;5095615;28;20029;-71
2022/02/17 06:43:14;;;;;;;11.52;9.25;;;;;;;13.60;46.81;96095.50;5095575;28;20143;-71
2022/02/17 06:45:42;;;;;;;12.90;10.38;;;;;;;13.66;48.71;96096.09;5095551;28;20099;-71
2022/02/17 06:48:08;;;;;;;11.13;9.32;;;;;;;14.34;46.10;96100.00;5095478;28;20020;-71
2022/02/17 06:50:35;;;;;;;11.00;9.63;;;;;;;15.10;42.43;96091.88;5095444;28;20024;-71
2022/02/17 06:53:01;;;;;;;10.35;9.27;;;;;;;15.91;40.50;96091.13;5095409;28;20027;-71
2022/02/17 06:55:26;;;;;;;11.50;9.73;;;;;;;16.50;38.76;96087.16;5095534;28;20056;-70
2022/02/17 06:57:53;;;;;;;12.48;11.00;;;;;;;17.00;37.65;96096.94;5095304;28;20091;-71
2022/02/17 07:00:19;;;;;;;11.88;10.23;;;;;;;17.15;37.19;96096.81;5095275;28;20055;-71
2022/02/17 07:02:55;;;;;;;13.65;11.73;;;;;;;17.10;37.18;96097.13;5095192;28;20114;-70
2022/02/17 07:05:24;;;;;;;19.58;14.23;;;;;;;17.15;37.28;96096.81;5094913;28;20036;-70
2022/02/17 07:07:50;;;;;;;18.42;14.82;;;;;;;17.23;37.47;96088.34;5094368;28;20107;-70
2022/02/17 07:10:54;;;;;;;19.15;14.48;;;;;;;17.17;37.49;96089.63;5095250;28;20359;-70
2022/02/17 07:13:03;;;;;;;16.92;12.90;;;;;;;17.67;36.62;96083.41;5094561;28;20046;-70
2022/02/17 07:15:30;;;;;;;15.85;12.75;;;;;;;18.35;35.69;96080.13;5094985;28;20068;-70
2022/02/17 07:17:56;;;;;;;18.55;13.88;;;;;;;19.05;34.85;96080.00;5094924;28;20027;-70
2022/02/17 07:20:22;;;;;;;15.80;13.40;;;;;;;19.86;33.56;96079.81;5094632;28;20075;-72
2022/02/17 07:22:47;;;;;;;14.90;13.18;;;;;;;20.18;33.15;96069.19;5094771;28;20044;-71
2022/02/17 07:25:13;;;;;;;16.52;12.18;;;;;;;20.41;32.79;96065.53;5094883;28;20024;-71
2022/02/17 07:27:38;;;;;;;13.82;11.50;;;;;;;20.76;33.29;96063.44;5094684;28;20032;-72
2022/02/17 07:30:04;;;;;;;13.07;11.73;;;;;;;21.19;32.70;96058.88;5094691;28;20016;-71
2022/02/17 07:32:31;;;;;;;18.00;12.32;;;;;;;21.57;32.16;96061.69;5094694;28;20056;-71
2022/02/17 07:34:57;;;;;;;18.35;13.10;;;;;;;21.29;33.02;96066.84;5094752;28;20020;-71
2022/02/17 07:37:22;;;;;;;12.25;10.90;;;;;;;21.45;32.90;96066.31;5094474;28;20115;-71
2022/02/17 07:39:48;;;;;;;12.60;11.27;;;;;;;21.58;32.75;96058.03;5094378;28;20024;-71
2022/02/17 07:42:15;;;;;;;14.00;11.63;;;;;;;21.58;32.93;96055.38;5094396;28;20024;-72
2022/02/17 07:44:40;;;;;;;13.35;10.23;;;;;;;21.96;32.82;96060.88;5094362;28;20107;-70
2022/02/17 07:47:06;;;;;;;13.85;11.45;;;;;;;22.18;32.57;96059.72;5094372;28;20521;-71
2022/02/17 07:49:32;;;;;;;16.00;11.07;;;;;;;22.29;32.99;96060.56;5094359;28;20024;-71
2022/02/17 07:51:57;;;;;;;15.15;11.60;;;;;;;22.64;31.94;96064.44;5094254;28;20099;-72
2022/02/17 07:54:25;;;;;;;14.27;10.05;;;;;;;22.27;32.86;96067.88;5094125;28;20028;-70
2022/02/17 07:56:50;;;;;;;11.48;10.23;;;;;;;22.43;32.90;96068.06;5094069;28;20020;-72
2022/02/17 07:59:16;;;;;;;13.73;11.20;;;;;;;22.75;32.70;96062.56;5094217;28;20076;-71
2022/02/17 08:01:41;;;;;;;13.40;10.40;;;;;;;22.68;32.48;96064.97;5094120;28;20076;-70
2022/02/17 08:04:07;;;;;;;16.60;11.23;;;;;;;22.94;32.65;96064.31;5094081;28;20024;-71
2022/02/17 08:06:33;;;;;;;14.63;10.85;;;;;;;22.47;32.70;96061.50;5094060;28;20025;-71
2022/02/17 08:08:58;;;;;;;19.00;13.63;;;;;;;23.08;31.67;96058.47;5093893;28;20036;-71
2022/02/17 08:11:25;;;;;;;13.55;11.82;;;;;;;23.52;30.67;96056.97;5093947;28;20020;-71
2022/02/17 08:13:50;;;;;;;13.02;10.60;;;;;;;23.75;30.77;96050.31;5093701;28;20555;-71
2022/02/17 08:16:15;;;;;;;11.10;9.88;;;;;;;23.09;31.73;96048.66;5093519;28;20103;-71
2022/02/17 08:18:41;;;;;;;13.88;10.55;;;;;;;22.33;32.57;96043.28;5093322;28;20048;-70
2022/02/17 08:21:08;;;;;;;13.05;10.88;;;;;;;21.48;34.37;96034.13;5093849;28;20093;-70
2022/02/17 08:23:36;;;;;;;14.75;11.30;;;;;;;21.04;35.64;96042.47;5093726;28;20036;-70
2022/02/17 08:26:01;;;;;;;15.10;11.18;;;;;;;20.66;36.31;96039.50;5093519;28;20110;-70
2022/02/17 08:28:27;;;;;;;12.07;10.63;;;;;;;19.62;37.53;96033.13;5093437;28;20115;-70
2022/02/17 08:30:52;;;;;;;15.95;11.27;;;;;;;19.29;39.29;96036.63;5093474;28;20027;-70
2022/02/17 08:33:18;;;;;;;15.77;11.88;;;;;;;18.79;40.03;96035.22;5093620;28;20024;-69
2022/02/17 08:35:44;;;;;;;15.73;11.48;;;;;;;18.24;40.39;96035.13;5093503;28;20020;-69
2022/02/17 08:38:09;;;;;;;14.82;11.80;;;;;;;17.97;42.01;96033.59;5093533;28;20032;-70
2022/02/17 08:40:35;;;;;;;14.25;11.18;;;;;;;17.83;42.15;96034.63;5093511;28;20020;-70
2022/02/17 08:43:10;;;;;;;14.52;10.05;;;;;;;17.39;43.53;96036.03;5093485;28;20028;-70
2022/02/17 08:45:43;;;;;;;18.67;10.55;;;;;;;17.48;42.22;96029.22;5093429;28;20112;-70
2022/02/17 08:48:11;;;;;;;16.65;10.35;;;;;;;16.99;43.97;96028.34;5093442;28;20370;-69
2022/02/17 08:50:39;;;;;;;14.85;9.38;;;;;;;16.57;43.81;96026.03;5093395;28;20035;-70
2022/02/17 08:53:05;;;;;;;11.82;9.73;;;;;;;16.85;43.24;96019.63;5093351;28;20075;-70
2022/02/17 08:55:30;;;;;;;12.60;9.40;;;;;;;16.59;42.93;96014.44;5093228;28;20474;-70
2022/02/17 08:57:56;;;;;;;13.10;10.15;;;;;;;16.10;43.25;96019.53;5093277;28;20549;-70
2022/02/17 09:00:21;;;;;;;15.63;9.82;;;;;;;15.98;44.11;96017.75;5093292;28;20020;-70
2022/02/17 09:02:47;;;;;;;13.45;9.13;;;;;;;15.73;45.46;96017.56;5093159;28;20397;-70
2022/02/17 09:05:12;;;;;;;13.07;9.40;;;;;;;15.43;46.10;96013.41;5093143;28;20039;-70
2022/02/17 09:07:38;;;;;;;12.48;8.18;;;;;;;15.30;45.85;96013.38;5093056;28;20028;-69
2022/02/17 09:10:06;;;;;;;12.68;7.38;;;;;;;15.23;46.27;96018.19;5093106;28;20027;-69
2022/02/17 09:12:36;;;;;;;18.45;10.68;;;;;;;14.88;48.46;96008.13;5093162;28;20024;-69
2022/02/17 09:15:03;;;;;;;20.08;12.45;;;;;;;14.74;49.50;96011.59;5093216;28;20070;-69
2022/02/17 09:17:29;;;;;;;14.82;12.40;;;;;;;14.60;50.13;96000.16;5093142;28;20028;-69
2022/02/17 09:19:55;;;;;;;21.48;14.55;;;;;;;14.69;49.74;95997.91;5092742;28;20048;-69
2022/02/17 09:22:20;;;;;;;21.92;15.32;;;;;;;14.39;50.29;95989.22;5092855;28;20026;-69
2022/02/17 09:24:47;;;;;;;24.02;15.07;;;;;;;14.33;52.21;95992.22;5093058;28;20024;-69
2022/02/17 09:27:13;;;;;;;24.05;14.88;;;;;;;14.33;52.07;95987.78;5092881;28;20028;-69
2022/02/17 09:29:40;;;;;;;19.02;15.63;;;;;;;14.29;52.58;95981.03;5094022;28;20547;-69
2022/02/17 09:32:06;;;;;;;21.85;15.40;;;;;;;14.22;52.59;95988.47;5096944;28;20024;-69
2022/02/17 09:34:31;;;;;;;25.67;17.67;;;;;;;14.37;52.22;95983.19;5096950;28;20055;-69
2022/02/17 09:36:57;;;;;;;24.50;18.77;;;;;;;14.19;52.26;95982.53;5096803;28;20024;-69
2022/02/17 09:39:25;;;;;;;26.77;19.35;;;;;;;13.82;53.23;95983.00;5096865;28;20028;-68
2022/02/17 09:41:51;;;;;;;26.23;18.77;;;;;;;13.68;54.83;95979.44;5096798;28;20251;-69
2022/02/17 09:44:20;;;;;;;27.95;20.13;;;;;;;13.74;53.89;95979.06;5096791;28;20028;-68
2022/02/17 09:46:47;;;;;;;32.50;20.13;;;;;;;13.69;54.46;95964.50;5078662;28;20047;-69
2022/02/17 09:49:19;;;;;;;28.95;20.65;;;;;;;13.85;53.76;95967.88;5078599;28;20107;-69
2022/02/17 09:51:46;;;;;;;28.63;20.45;;;;;;;13.86;53.83;95963.47;5096676;28;20024;-69
2022/02/17 09:54:11;;;;;;;27.33;19.45;;;;;;;13.86;53.19;95958.22;5078557;28;20039;-69
2022/02/17 09:56:38;;;;;;;28.65;20.75;;;;;;;13.59;54.75;95958.94;5096515;28;20394;-69
2022/02/17 09:59:05;;;;;;;26.00;19.80;;;;;;;13.72;54.07;95949.38;5096440;28;20020;-69
2022/02/17 10:01:31;;;;;;;24.70;19.05;;;;;;;13.70;52.71;95945.16;5096329;28;20054;-69
2022/02/17 10:04:15;;;;;;;27.88;19.80;;;;;;;13.57;53.88;95952.94;5096366;28;20039;-69
2022/02/17 10:06:43;;;;;;;27.83;20.75;;;;;;;13.46;54.01;95946.47;5078167;28;20073;-70
2022/02/17 10:09:10;;;;;;;28.20;19.58;;;;;;;13.62;53.51;95950.88;5096185;28;20031;-70
2022/02/17 10:11:36;;;;;;;27.60;19.58;;;;;;;13.55;53.34;95931.16;5096202;28;20107;-69
2022/02/17 10:14:09;;;;;;;30.70;21.13;;;;;;;13.51;53.38;95922.59;5096201;28;20031;-70
2022/02/17 10:17:03;;;;;;;29.40;20.45;;;;;;;13.64;54.38;95914.84;5096174;28;20069;-69
2022/02/17 10:19:42;;;;;;;29.33;19.02;;;;;;;13.69;54.01;95909.31;5095859;28;20119;-70
2022/02/17 10:22:13;;;;;;;25.00;18.27;;;;;;;13.71;53.28;95891.66;5096029;28;20379;-70
2022/02/17 10:24:49;;;;;;;28.38;18.52;;;;;;;13.84;52.64;95892.59;5095973;28;20031;-69
2022/02/17 10:27:18;;;;;;;27.50;17.90;;;;;;;13.96;52.72;95872.59;5095903;28;20389;-69
2022/02/17 10:30:09;;;;;;;28.67;16.67;;;;;;;13.84;52.24;95868.94;5095899;28;20020;-69
2022/02/17 10:32:50;;;;;;;26.40;18.67;;;;;;;13.87;53.07;95849.50;5095806;28;20024;-69
2022/02/17 10:35:16;;;;;;;32.00;19.67;;;;;;;13.80;52.46;95846.41;5095969;28;20104;-69
2022/02/17 10:37:47;;;;;;;26.33;18.35;;;;;;;13.54;54.42;95830.47;5095756;28;20507;-71
2022/02/17 10:40:32;;;;;;;28.85;18.55;;;;;;;13.56;54.43;95831.22;5095576;28;20032;-69
2022/02/17 10:43:12;;;;;;;32.72;17.80;;;;;;;13.68;54.00;95828.78;5095583;28;20493;-70
2022/02/17 10:45:39;;;;;;;36.70;19.13;;;;;;;13.77;52.99;95820.31;5077439;28;20021;-70
2022/02/17 10:48:25;;;;;;;24.40;17.40;;;;;;;14.00;52.41;95815.41;5095521;28;20035;-69
2022/02/17 10:51:16;;;;;;;23.75;17.30;;;;;;;13.79;52.90;95815.81;5095636;28;20024;-70
2022/02/17 10:53:43;;;;;;;;;;;;;;;13.85;52.93;95810.16;5096006;28;20036;-70
2022/02/17 10:56:11;;;;;;;26.25;17.83;;;;;;;13.95;52.88;95813.06;5095350;28;19941;-70
2022/02/17 10:58:50;;;;;;;33.55;20.17;;;;;;;13.83;54.03;95816.47;5095369;28;20035;-69
2022/02/17 11:01:18;;;;;;;31.13;19.38;;;;;;;13.88;52.91;95820.47;5095373;28;20542;-70
2022/02/17 11:03:45;;;;;;;31.38;19.30;;;;;;;13.95;53.04;95806.97;5095244;28;20020;-69
2022/02/17 11:06:13;;;;;;;30.55;20.25;;;;;;;14.09;53.72;95803.47;5095261;28;20023;-69
2022/02/17 11:08:40;;;;;;;31.55;19.90;;;;;;;14.12;53.27;95796.19;5095029;28;20028;-69
2022/02/17 11:11:07;;;;;;;28.13;19.38;;;;;;;14.09;51.97;95793.78;5095089;28;20024;-69
2022/02/17 11:13:33;;;;;;;29.67;19.38;;;;;;;14.15;52.47;95793.38;5095150;28;20400;-70
2022/02/17 11:16:07;;;;;;;22.70;16.08;;;;;;;14.21;50.59;95786.06;5095134;28;20107;-70
2022/02/17 11:18:32;;;;;;;24.13;16.80;;;;;;;14.24;51.94;95770.06;5094746;28;20032;-70
2022/02/17 11:21:00;;;;;;;26.92;17.70;;;;;;;14.18;53.31;95770.47;5095037;28;20023;-70
2022/02/17 11:23:34;;;;;;;26.83;18.25;;;;;;;14.34;52.79;95767.66;5094828;28;20081;-70